Tichnor, Arkansas
Current Conditions -  °F | °C
As of 1:15 AM on Sunday 23 Nov 2014 (Local Time) from KSGT Reporting Station
Overcast Overcast  
Wind Chill: 55°   Ceiling: 5000
Heat Index: 55°   Visibility: 9mi
Dew Point: 48°   Wind: 9mph
Humidity: 77%   Direction: 150°SSE
Pressure: 29.85"   Gusts: NA
Location:  34.14°N, 91.27°W
Report Text: KSGT 230715Z AUTO 15008KT 9SM OVC050 13/09 A2985 RMK AO1
Loading
Personal Weather Stations






























Interactive Weather Map New forecast layout! Learn more

10-Day Weather Forecast

Advertisements
Track Severe Weather on mobile